sensor_id;sensor_type;location;lat;lon;timestamp;temperature;humidity
3564;DHT22;1796;52.388;13.096;2023-08-31T00:01:02;15.20;99.90
3564;DHT22;1796;52.388;13.096;2023-08-31T00:03:30;15.20;99.90
3564;DHT22;1796;52.388;13.096;2023-08-31T00:05:57;15.20;99.90
3564;DHT22;1796;52.388;13.096;2023-08-31T00:08:24;15.20;99.90
3564;DHT22;1796;52.388;13.096;2023-08-31T00:10:57;15.10;99.90
3564;DHT22;1796;52.388;13.096;2023-08-31T00:13:25;15.10;99.90
3564;DHT22;1796;52.388;13.096;2023-08-31T00:15:55;15.10;99.90
3564;DHT22;1796;52.388;13.096;2023-08-31T00:18:23;15.20;99.90
3564;DHT22;1796;52.388;13.096;2023-08-31T00:20:50;15.20;99.90
3564;DHT22;1796;52.388;13.096;2023-08-31T00:23:17;15.10;99.90
3564;DHT22;1796;52.388;13.096;2023-08-31T00:25:45;15.10;99.90
3564;DHT22;1796;52.388;13.096;2023-08-31T00:28:13;15.10;99.90
3564;DHT22;1796;52.388;13.096;2023-08-31T00:30:41;15.10;99.90
3564;DHT22;1796;52.388;13.096;2023-08-31T00:33:11;15.00;99.90
3564;DHT22;1796;52.388;13.096;2023-08-31T00:35:38;14.90;99.90
3564;DHT22;1796;52.388;13.096;2023-08-31T00:38:09;14.90;99.90
3564;DHT22;1796;52.388;13.096;2023-08-31T00:40:38;15.00;99.90
3564;DHT22;1796;52.388;13.096;2023-08-31T00:43:06;14.80;99.90
3564;DHT22;1796;52.388;13.096;2023-08-31T00:45:34;14.80;99.90
3564;DHT22;1796;52.388;13.096;2023-08-31T00:48:01;14.80;99.90
3564;DHT22;1796;52.388;13.096;2023-08-31T00:50:29;14.80;99.90
3564;DHT22;1796;52.388;13.096;2023-08-31T00:52:56;14.70;99.90
3564;DHT22;1796;52.388;13.096;2023-08-31T00:55:23;14.70;99.90
3564;DHT22;1796;52.388;13.096;2023-08-31T00:57:50;14.70;99.90
3564;DHT22;1796;52.388;13.096;2023-08-31T01:00:17;14.70;99.90
3564;DHT22;1796;52.388;13.096;2023-08-31T01:02:51;14.80;99.90
3564;DHT22;1796;52.388;13.096;2023-08-31T01:05:32;14.80;99.90
3564;DHT22;1796;52.388;13.096;2023-08-31T01:08:07;14.80;99.90
3564;DHT22;1796;52.388;13.096;2023-08-31T01:10:49;14.80;99.90
3564;DHT22;1796;52.388;13.096;2023-08-31T01:13:24;14.80;99.90
3564;DHT22;1796;52.388;13.096;2023-08-31T01:15:53;14.80;99.90
3564;DHT22;1796;52.388;13.096;2023-08-31T01:18:22;14.70;99.90
3564;DHT22;1796;52.388;13.096;2023-08-31T01:21:00;14.70;99.90
3564;DHT22;1796;52.388;13.096;2023-08-31T01:23:31;14.60;99.90
3564;DHT22;1796;52.388;13.096;2023-08-31T01:26:02;14.40;99.90
3564;DHT22;1796;52.388;13.096;2023-08-31T01:28:29;14.20;99.90
3564;DHT22;1796;52.388;13.096;2023-08-31T01:30:57;14.10;99.90
3564;DHT22;1796;52.388;13.096;2023-08-31T01:33:23;13.90;99.90
3564;DHT22;1796;52.388;13.096;2023-08-31T01:35:52;13.80;99.90
3564;DHT22;1796;52.388;13.096;2023-08-31T01:38:25;13.70;99.90
3564;DHT22;1796;52.388;13.096;2023-08-31T01:40:57;13.70;99.90
3564;DHT22;1796;52.388;13.096;2023-08-31T01:43:28;13.60;99.90
3564;DHT22;1796;52.388;13.096;2023-08-31T01:45:56;13.40;99.90
3564;DHT22;1796;52.388;13.096;2023-08-31T01:48:24;13.40;99.90
3564;DHT22;1796;52.388;13.096;2023-08-31T01:50:50;13.40;99.90
3564;DHT22;1796;52.388;13.096;2023-08-31T01:53:17;13.40;99.90
3564;DHT22;1796;52.388;13.096;2023-08-31T01:55:44;13.20;99.90
3564;DHT22;1796;52.388;13.096;2023-08-31T01:58:11;13.20;99.90
3564;DHT22;1796;52.388;13.096;2023-08-31T02:00:39;13.30;99.90
3564;DHT22;1796;52.388;13.096;2023-08-31T02:03:06;13.20;99.90
3564;DHT22;1796;52.388;13.096;2023-08-31T02:05:33;13.30;99.90
3564;DHT22;1796;52.388;13.096;2023-08-31T02:08:00;13.20;99.90
3564;DHT22;1796;52.388;13.096;2023-08-31T02:10:27;13.20;99.90
3564;DHT22;1796;52.388;13.096;2023-08-31T02:12:55;13.20;99.90
3564;DHT22;1796;52.388;13.096;2023-08-31T02:15:22;13.20;99.90
3564;DHT22;1796;52.388;13.096;2023-08-31T02:17:50;13.30;99.90
3564;DHT22;1796;52.388;13.096;2023-08-31T02:20:17;13.30;99.90
3564;DHT22;1796;52.388;13.096;2023-08-31T02:22:46;13.40;99.90
3564;DHT22;1796;52.388;13.096;2023-08-31T02:25:14;13.40;99.90
3564;DHT22;1796;52.388;13.096;2023-08-31T02:27:42;13.50;99.90
3564;DHT22;1796;52.388;13.096;2023-08-31T02:30:09;13.40;99.90
3564;DHT22;1796;52.388;13.096;2023-08-31T02:32:36;13.50;99.90
3564;DHT22;1796;52.388;13.096;2023-08-31T02:35:05;13.60;99.90
3564;DHT22;1796;52.388;13.096;2023-08-31T02:37:32;13.60;99.90
3564;DHT22;1796;52.388;13.096;2023-08-31T02:39:59;13.60;99.90
3564;DHT22;1796;52.388;13.096;2023-08-31T02:42:26;13.60;99.90
3564;DHT22;1796;52.388;13.096;2023-08-31T02:44:53;13.70;99.90
3564;DHT22;1796;52.388;13.096;2023-08-31T02:47:20;13.60;99.90
3564;DHT22;1796;52.388;13.096;2023-08-31T02:49:47;13.60;99.90
3564;DHT22;1796;52.388;13.096;2023-08-31T02:52:15;13.50;99.90
3564;DHT22;1796;52.388;13.096;2023-08-31T02:54:42;13.50;99.90
3564;DHT22;1796;52.388;13.096;2023-08-31T02:57:09;13.50;99.90
3564;DHT22;1796;52.388;13.096;2023-08-31T02:59:36;13.40;99.90
3564;DHT22;1796;52.388;13.096;2023-08-31T03:02:03;13.30;99.90
3564;DHT22;1796;52.388;13.096;2023-08-31T03:04:30;13.30;99.90
3564;DHT22;1796;52.388;13.096;2023-08-31T03:06:57;13.30;99.90
3564;DHT22;1796;52.388;13.096;2023-08-31T03:09:25;13.40;99.90
3564;DHT22;1796;52.388;13.096;2023-08-31T03:11:52;13.30;99.90
3564;DHT22;1796;52.388;13.096;2023-08-31T03:14:19;13.30;99.90
3564;DHT22;1796;52.388;13.096;2023-08-31T03:16:46;13.30;99.90
3564;DHT22;1796;52.388;13.096;2023-08-31T03:19:12;13.30;99.90
3564;DHT22;1796;52.388;13.096;2023-08-31T03:21:39;13.30;99.90
3564;DHT22;1796;52.388;13.096;2023-08-31T03:24:06;13.30;99.90
3564;DHT22;1796;52.388;13.096;2023-08-31T03:26:35;13.40;99.90
3564;DHT22;1796;52.388;13.096;2023-08-31T03:29:02;13.30;99.90
3564;DHT22;1796;52.388;13.096;2023-08-31T03:31:29;13.30;99.90
3564;DHT22;1796;52.388;13.096;2023-08-31T03:33:57;13.30;99.90
3564;DHT22;1796;52.388;13.096;2023-08-31T03:36:24;13.30;99.90
3564;DHT22;1796;52.388;13.096;2023-08-31T03:38:51;13.30;99.90
3564;DHT22;1796;52.388;13.096;2023-08-31T03:41:18;13.30;99.90
3564;DHT22;1796;52.388;13.096;2023-08-31T03:43:46;13.20;99.90
3564;DHT22;1796;52.388;13.096;2023-08-31T03:46:13;13.30;99.90
3564;DHT22;1796;52.388;13.096;2023-08-31T03:48:39;13.30;99.90
3564;DHT22;1796;52.388;13.096;2023-08-31T03:51:06;13.20;99.90
3564;DHT22;1796;52.388;13.096;2023-08-31T03:53:33;13.20;99.90
3564;DHT22;1796;52.388;13.096;2023-08-31T03:56:00;13.20;99.90
3564;DHT22;1796;52.388;13.096;2023-08-31T03:58:29;13.20;99.90
3564;DHT22;1796;52.388;13.096;2023-08-31T04:00:57;13.20;99.90
3564;DHT22;1796;52.388;13.096;2023-08-31T04:03:24;13.20;99.90
3564;DHT22;1796;52.388;13.096;2023-08-31T04:05:54;13.20;99.90
3564;DHT22;1796;52.388;13.096;2023-08-31T04:08:21;13.20;99.90
3564;DHT22;1796;52.388;13.096;2023-08-31T04:10:48;13.20;99.90
3564;DHT22;1796;52.388;13.096;2023-08-31T04:13:15;13.20;99.90
3564;DHT22;1796;52.388;13.096;2023-08-31T04:15:42;13.20;99.90
3564;DHT22;1796;52.388;13.096;2023-08-31T04:18:10;13.20;99.90
3564;DHT22;1796;52.388;13.096;2023-08-31T04:20:37;13.20;99.90
3564;DHT22;1796;52.388;13.096;2023-08-31T04:23:04;13.20;99.90
3564;DHT22;1796;52.388;13.096;2023-08-31T04:25:31;13.20;99.90
3564;DHT22;1796;52.388;13.096;2023-08-31T04:27:59;13.20;99.90
3564;DHT22;1796;52.388;13.096;2023-08-31T04:30:25;13.20;99.90
3564;DHT22;1796;52.388;13.096;2023-08-31T04:32:52;13.20;99.90
3564;DHT22;1796;52.388;13.096;2023-08-31T04:35:21;13.20;99.90
3564;DHT22;1796;52.388;13.096;2023-08-31T04:37:48;13.30;99.90
3564;DHT22;1796;52.388;13.096;2023-08-31T04:40:15;13.20;99.90
3564;DHT22;1796;52.388;13.096;2023-08-31T04:42:42;13.20;99.90
3564;DHT22;1796;52.388;13.096;2023-08-31T04:45:09;13.30;99.90
3564;DHT22;1796;52.388;13.096;2023-08-31T04:47:37;13.20;99.90
3564;DHT22;1796;52.388;13.096;2023-08-31T04:50:05;13.20;99.90
3564;DHT22;1796;52.388;13.096;2023-08-31T04:52:34;13.30;99.90
3564;DHT22;1796;52.388;13.096;2023-08-31T04:55:01;13.30;99.90
3564;DHT22;1796;52.388;13.096;2023-08-31T04:57:29;13.30;99.90
3564;DHT22;1796;52.388;13.096;2023-08-31T04:59:55;13.30;99.90
3564;DHT22;1796;52.388;13.096;2023-08-31T05:02:22;13.30;99.90
3564;DHT22;1796;52.388;13.096;2023-08-31T05:04:49;13.30;99.90
3564;DHT22;1796;52.388;13.096;2023-08-31T05:07:16;13.40;99.90
3564;DHT22;1796;52.388;13.096;2023-08-31T05:09:44;13.40;99.90
3564;DHT22;1796;52.388;13.096;2023-08-31T05:12:11;13.40;99.90
3564;DHT22;1796;52.388;13.096;2023-08-31T05:14:38;13.40;99.90
3564;DHT22;1796;52.388;13.096;2023-08-31T05:17:06;13.40;99.90
3564;DHT22;1796;52.388;13.096;2023-08-31T05:19:33;13.50;99.90
3564;DHT22;1796;52.388;13.096;2023-08-31T05:22:00;13.40;99.90
3564;DHT22;1796;52.388;13.096;2023-08-31T05:24:27;13.50;99.90
3564;DHT22;1796;52.388;13.096;2023-08-31T05:26:55;13.40;99.90
3564;DHT22;1796;52.388;13.096;2023-08-31T05:29:22;13.50;99.90
3564;DHT22;1796;52.388;13.096;2023-08-31T05:31:49;13.50;99.90
3564;DHT22;1796;52.388;13.096;2023-08-31T05:34:21;13.60;99.90
3564;DHT22;1796;52.388;13.096;2023-08-31T05:36:48;13.60;99.90
3564;DHT22;1796;52.388;13.096;2023-08-31T05:39:15;13.70;99.90
3564;DHT22;1796;52.388;13.096;2023-08-31T05:41:42;13.80;99.90
3564;DHT22;1796;52.388;13.096;2023-08-31T05:44:11;13.90;99.90
3564;DHT22;1796;52.388;13.096;2023-08-31T05:46:38;14.00;99.90
3564;DHT22;1796;52.388;13.096;2023-08-31T05:49:06;14.10;99.90
3564;DHT22;1796;52.388;13.096;2023-08-31T05:51:33;14.10;99.90
3564;DHT22;1796;52.388;13.096;2023-08-31T05:54:00;14.20;99.90
3564;DHT22;1796;52.388;13.096;2023-08-31T05:56:28;14.30;99.90
3564;DHT22;1796;52.388;13.096;2023-08-31T05:58:55;14.50;99.90
3564;DHT22;1796;52.388;13.096;2023-08-31T06:01:23;14.60;99.90
3564;DHT22;1796;52.388;13.096;2023-08-31T06:03:50;14.90;99.90
3564;DHT22;1796;52.388;13.096;2023-08-31T06:06:17;14.90;99.90
3564;DHT22;1796;52.388;13.096;2023-08-31T06:08:44;14.70;99.90
3564;DHT22;1796;52.388;13.096;2023-08-31T06:11:10;14.70;99.90
3564;DHT22;1796;52.388;13.096;2023-08-31T06:13:38;14.70;99.90
3564;DHT22;1796;52.388;13.096;2023-08-31T06:16:05;14.60;99.90
3564;DHT22;1796;52.388;13.096;2023-08-31T06:18:34;14.60;99.90
3564;DHT22;1796;52.388;13.096;2023-08-31T06:21:00;14.60;99.90
3564;DHT22;1796;52.388;13.096;2023-08-31T06:23:27;14.50;99.90
3564;DHT22;1796;52.388;13.096;2023-08-31T06:25:54;14.60;99.90
3564;DHT22;1796;52.388;13.096;2023-08-31T06:28:21;14.60;99.90
3564;DHT22;1796;52.388;13.096;2023-08-31T06:30:48;14.60;99.90
3564;DHT22;1796;52.388;13.096;2023-08-31T06:33:15;14.50;99.90
3564;DHT22;1796;52.388;13.096;2023-08-31T06:35:45;14.40;99.90
3564;DHT22;1796;52.388;13.096;2023-08-31T06:38:14;14.40;99.90
3564;DHT22;1796;52.388;13.096;2023-08-31T06:40:41;14.50;99.90
3564;DHT22;1796;52.388;13.096;2023-08-31T06:43:08;14.40;99.90
3564;DHT22;1796;52.388;13.096;2023-08-31T06:45:35;14.50;99.90
3564;DHT22;1796;52.388;13.096;2023-08-31T06:48:02;14.40;99.90
3564;DHT22;1796;52.388;13.096;2023-08-31T06:50:29;14.50;99.90
3564;DHT22;1796;52.388;13.096;2023-08-31T06:52:58;14.50;99.90
3564;DHT22;1796;52.388;13.096;2023-08-31T06:55:24;14.60;99.90
3564;DHT22;1796;52.388;13.096;2023-08-31T06:57:51;14.60;99.90
3564;DHT22;1796;52.388;13.096;2023-08-31T07:00:19;14.70;99.90
3564;DHT22;1796;52.388;13.096;2023-08-31T07:02:46;14.80;99.90
3564;DHT22;1796;52.388;13.096;2023-08-31T07:05:13;14.80;99.90
3564;DHT22;1796;52.388;13.096;2023-08-31T07:07:39;14.80;99.90
3564;DHT22;1796;52.388;13.096;2023-08-31T07:10:08;14.90;99.90
3564;DHT22;1796;52.388;13.096;2023-08-31T07:12:35;14.90;99.90
3564;DHT22;1796;52.388;13.096;2023-08-31T07:15:02;15.00;99.90
3564;DHT22;1796;52.388;13.096;2023-08-31T07:17:29;15.10;99.90
3564;DHT22;1796;52.388;13.096;2023-08-31T07:19:56;15.20;99.90
3564;DHT22;1796;52.388;13.096;2023-08-31T07:22:23;15.20;99.90
3564;DHT22;1796;52.388;13.096;2023-08-31T07:24:50;15.20;99.90
3564;DHT22;1796;52.388;13.096;2023-08-31T07:27:18;15.10;99.90
3564;DHT22;1796;52.388;13.096;2023-08-31T07:29:45;15.10;99.90
3564;DHT22;1796;52.388;13.096;2023-08-31T07:32:11;15.40;99.90
3564;DHT22;1796;52.388;13.096;2023-08-31T07:34:38;16.30;99.90
3564;DHT22;1796;52.388;13.096;2023-08-31T07:37:05;16.60;99.90
3564;DHT22;1796;52.388;13.096;2023-08-31T07:39:32;16.60;99.90
3564;DHT22;1796;52.388;13.096;2023-08-31T07:41:59;16.80;99.90
3564;DHT22;1796;52.388;13.096;2023-08-31T07:44:27;17.80;99.90
3564;DHT22;1796;52.388;13.096;2023-08-31T07:46:54;18.00;99.90
3564;DHT22;1796;52.388;13.096;2023-08-31T07:49:21;18.30;99.90
3564;DHT22;1796;52.388;13.096;2023-08-31T07:51:47;18.70;99.90
3564;DHT22;1796;52.388;13.096;2023-08-31T07:54:19;19.10;99.90
3564;DHT22;1796;52.388;13.096;2023-08-31T07:56:46;18.70;99.90
3564;DHT22;1796;52.388;13.096;2023-08-31T07:59:13;17.80;99.90
3564;DHT22;1796;52.388;13.096;2023-08-31T08:01:42;17.70;99.90
3564;DHT22;1796;52.388;13.096;2023-08-31T08:04:08;17.90;99.90
3564;DHT22;1796;52.388;13.096;2023-08-31T08:06:35;18.10;99.90
3564;DHT22;1796;52.388;13.096;2023-08-31T08:09:02;18.80;99.90
3564;DHT22;1796;52.388;13.096;2023-08-31T08:11:30;18.90;99.90
3564;DHT22;1796;52.388;13.096;2023-08-31T08:13:57;18.70;99.90
3564;DHT22;1796;52.388;13.096;2023-08-31T08:16:24;18.30;99.90
3564;DHT22;1796;52.388;13.096;2023-08-31T08:18:52;18.10;99.90
3564;DHT22;1796;52.388;13.096;2023-08-31T08:21:19;18.30;99.90
3564;DHT22;1796;52.388;13.096;2023-08-31T08:23:46;18.90;99.90
3564;DHT22;1796;52.388;13.096;2023-08-31T08:26:12;19.00;99.90
3564;DHT22;1796;52.388;13.096;2023-08-31T08:28:39;18.70;99.90
3564;DHT22;1796;52.388;13.096;2023-08-31T08:31:06;18.50;99.90
3564;DHT22;1796;52.388;13.096;2023-08-31T08:36:13;18.20;99.90
3564;DHT22;1796;52.388;13.096;2023-08-31T08:38:41;18.10;99.90
3564;DHT22;1796;52.388;13.096;2023-08-31T08:41:08;18.00;99.90
3564;DHT22;1796;52.388;13.096;2023-08-31T08:43:37;17.80;99.90
3564;DHT22;1796;52.388;13.096;2023-08-31T08:46:06;17.80;99.90
3564;DHT22;1796;52.388;13.096;2023-08-31T08:48:34;17.80;99.90
3564;DHT22;1796;52.388;13.096;2023-08-31T08:51:02;17.70;99.90
3564;DHT22;1796;52.388;13.096;2023-08-31T08:53:31;17.90;99.90
3564;DHT22;1796;52.388;13.096;2023-08-31T08:55:58;18.00;99.90
3564;DHT22;1796;52.388;13.096;2023-08-31T08:58:25;18.20;99.90
3564;DHT22;1796;52.388;13.096;2023-08-31T09:00:54;18.30;99.90
3564;DHT22;1796;52.388;13.096;2023-08-31T09:03:22;18.40;99.90
3564;DHT22;1796;52.388;13.096;2023-08-31T09:05:50;18.40;99.90
3564;DHT22;1796;52.388;13.096;2023-08-31T09:08:17;18.40;99.90
3564;DHT22;1796;52.388;13.096;2023-08-31T09:10:55;18.50;99.90
3564;DHT22;1796;52.388;13.096;2023-08-31T09:13:26;18.50;99.90
3564;DHT22;1796;52.388;13.096;2023-08-31T09:15:53;18.40;99.90
3564;DHT22;1796;52.388;13.096;2023-08-31T09:18:23;18.40;99.90
3564;DHT22;1796;52.388;13.096;2023-08-31T09:20:50;18.40;99.90
3564;DHT22;1796;52.388;13.096;2023-08-31T09:23:17;18.80;99.90
3564;DHT22;1796;52.388;13.096;2023-08-31T09:25:45;19.10;99.90
3564;DHT22;1796;52.388;13.096;2023-08-31T09:28:15;19.10;99.90
3564;DHT22;1796;52.388;13.096;2023-08-31T09:30:43;19.20;99.90
3564;DHT22;1796;52.388;13.096;2023-08-31T09:33:13;19.30;99.90
3564;DHT22;1796;52.388;13.096;2023-08-31T09:35:47;19.60;99.90
3564;DHT22;1796;52.388;13.096;2023-08-31T09:38:15;19.90;99.90
3564;DHT22;1796;52.388;13.096;2023-08-31T09:40:42;19.90;99.90
3564;DHT22;1796;52.388;13.096;2023-08-31T09:43:09;19.70;99.90
3564;DHT22;1796;52.388;13.096;2023-08-31T09:45:37;19.20;99.90
3564;DHT22;1796;52.388;13.096;2023-08-31T09:48:05;19.10;99.90
3564;DHT22;1796;52.388;13.096;2023-08-31T09:50:33;19.10;99.90
3564;DHT22;1796;52.388;13.096;2023-08-31T09:53:02;18.90;99.90
3564;DHT22;1796;52.388;13.096;2023-08-31T09:55:30;19.00;99.90
3564;DHT22;1796;52.388;13.096;2023-08-31T09:57:58;19.20;99.90
3564;DHT22;1796;52.388;13.096;2023-08-31T10:00:27;19.40;99.90
3564;DHT22;1796;52.388;13.096;2023-08-31T10:02:58;19.50;99.90
3564;DHT22;1796;52.388;13.096;2023-08-31T10:05:26;19.70;99.90
3564;DHT22;1796;52.388;13.096;2023-08-31T10:07:54;19.40;99.90
3564;DHT22;1796;52.388;13.096;2023-08-31T10:10:21;19.30;99.90
3564;DHT22;1796;52.388;13.096;2023-08-31T10:12:49;18.40;99.90
3564;DHT22;1796;52.388;13.096;2023-08-31T10:15:17;17.00;99.90
3564;DHT22;1796;52.388;13.096;2023-08-31T10:17:45;16.20;99.90
3564;DHT22;1796;52.388;13.096;2023-08-31T10:20:15;15.70;99.90
3564;DHT22;1796;52.388;13.096;2023-08-31T10:22:42;15.40;99.90
3564;DHT22;1796;52.388;13.096;2023-08-31T10:25:10;15.40;99.90
3564;DHT22;1796;52.388;13.096;2023-08-31T10:27:38;15.30;99.90
3564;DHT22;1796;52.388;13.096;2023-08-31T10:30:29;15.30;99.90
3564;DHT22;1796;52.388;13.096;2023-08-31T10:33:20;15.50;99.90
3564;DHT22;1796;52.388;13.096;2023-08-31T10:35:51;15.80;99.90
3564;DHT22;1796;52.388;13.096;2023-08-31T10:38:26;15.90;99.90
3564;DHT22;1796;52.388;13.096;2023-08-31T10:41:17;16.10;99.90
3564;DHT22;1796;52.388;13.096;2023-08-31T10:43:46;16.20;99.90
3564;DHT22;1796;52.388;13.096;2023-08-31T10:46:18;16.40;99.90
3564;DHT22;1796;52.388;13.096;2023-08-31T10:48:52;16.60;99.90
3564;DHT22;1796;52.388;13.096;2023-08-31T10:51:27;17.10;99.90
3564;DHT22;1796;52.388;13.096;2023-08-31T10:54:07;17.10;99.90
3564;DHT22;1796;52.388;13.096;2023-08-31T10:59:27;17.40;99.90
3564;DHT22;1796;52.388;13.096;2023-08-31T11:02:07;17.50;99.90
3564;DHT22;1796;52.388;13.096;2023-08-31T11:04:53;17.70;99.90
3564;DHT22;1796;52.388;13.096;2023-08-31T11:07:24;17.80;99.90
3564;DHT22;1796;52.388;13.096;2023-08-31T11:09:51;18.00;99.90
3564;DHT22;1796;52.388;13.096;2023-08-31T11:12:22;18.10;99.90
3564;DHT22;1796;52.388;13.096;2023-08-31T11:14:48;18.20;99.90
3564;DHT22;1796;52.388;13.096;2023-08-31T11:17:16;18.20;99.90
3564;DHT22;1796;52.388;13.096;2023-08-31T11:19:44;18.20;99.90
3564;DHT22;1796;52.388;13.096;2023-08-31T11:22:11;18.30;99.90
3564;DHT22;1796;52.388;13.096;2023-08-31T11:24:39;18.40;99.90
3564;DHT22;1796;52.388;13.096;2023-08-31T11:27:08;18.50;99.90
3564;DHT22;1796;52.388;13.096;2023-08-31T11:29:37;18.50;99.90
3564;DHT22;1796;52.388;13.096;2023-08-31T11:32:05;18.70;99.90
3564;DHT22;1796;52.388;13.096;2023-08-31T11:34:32;18.80;99.90
3564;DHT22;1796;52.388;13.096;2023-08-31T11:36:59;18.70;99.90
3564;DHT22;1796;52.388;13.096;2023-08-31T11:39:26;18.40;99.90
3564;DHT22;1796;52.388;13.096;2023-08-31T11:41:54;17.50;99.90
3564;DHT22;1796;52.388;13.096;2023-08-31T11:44:21;16.60;99.90
3564;DHT22;1796;52.388;13.096;2023-08-31T11:46:49;15.20;99.90
3564;DHT22;1796;52.388;13.096;2023-08-31T11:49:17;14.30;99.90
3564;DHT22;1796;52.388;13.096;2023-08-31T11:51:45;14.40;99.90
3564;DHT22;1796;52.388;13.096;2023-08-31T11:54:12;14.70;99.90
3564;DHT22;1796;52.388;13.096;2023-08-31T11:56:39;14.80;99.90
3564;DHT22;1796;52.388;13.096;2023-08-31T11:59:10;14.90;99.90
3564;DHT22;1796;52.388;13.096;2023-08-31T12:01:38;15.10;99.90
3564;DHT22;1796;52.388;13.096;2023-08-31T12:04:12;15.30;99.90
3564;DHT22;1796;52.388;13.096;2023-08-31T12:06:40;15.30;99.90
3564;DHT22;1796;52.388;13.096;2023-08-31T12:09:08;15.50;99.90
3564;DHT22;1796;52.388;13.096;2023-08-31T12:11:35;15.30;99.90
3564;DHT22;1796;52.388;13.096;2023-08-31T12:14:03;15.30;99.90
3564;DHT22;1796;52.388;13.096;2023-08-31T12:16:35;15.30;99.90
3564;DHT22;1796;52.388;13.096;2023-08-31T12:19:03;15.30;99.90
3564;DHT22;1796;52.388;13.096;2023-08-31T12:21:30;15.20;99.90
3564;DHT22;1796;52.388;13.096;2023-08-31T12:23:57;15.30;99.90
3564;DHT22;1796;52.388;13.096;2023-08-31T12:26:24;15.20;99.90
3564;DHT22;1796;52.388;13.096;2023-08-31T12:28:51;15.10;99.90
3564;DHT22;1796;52.388;13.096;2023-08-31T12:31:18;15.20;99.90
3564;DHT22;1796;52.388;13.096;2023-08-31T12:33:46;15.30;99.90
3564;DHT22;1796;52.388;13.096;2023-08-31T12:36:13;15.70;99.90
3564;DHT22;1796;52.388;13.096;2023-08-31T12:38:40;16.10;99.90
3564;DHT22;1796;52.388;13.096;2023-08-31T12:41:07;16.50;99.90
3564;DHT22;1796;52.388;13.096;2023-08-31T12:43:34;17.00;99.90
3564;DHT22;1796;52.388;13.096;2023-08-31T12:46:01;17.40;99.90
3564;DHT22;1796;52.388;13.096;2023-08-31T12:48:31;17.80;99.90
3564;DHT22;1796;52.388;13.096;2023-08-31T12:50:59;18.00;99.90
3564;DHT22;1796;52.388;13.096;2023-08-31T12:53:26;18.20;99.90
3564;DHT22;1796;52.388;13.096;2023-08-31T12:55:54;18.20;99.90
3564;DHT22;1796;52.388;13.096;2023-08-31T12:58:20;18.20;99.90
3564;DHT22;1796;52.388;13.096;2023-08-31T13:00:48;18.00;99.90
3564;DHT22;1796;52.388;13.096;2023-08-31T13:03:17;17.90;99.90
3564;DHT22;1796;52.388;13.096;2023-08-31T13:05:45;17.80;99.90
3564;DHT22;1796;52.388;13.096;2023-08-31T13:08:13;17.80;99.90
3564;DHT22;1796;52.388;13.096;2023-08-31T13:10:40;18.00;99.90
3564;DHT22;1796;52.388;13.096;2023-08-31T13:13:07;18.00;99.90
3564;DHT22;1796;52.388;13.096;2023-08-31T13:15:34;17.80;99.90
3564;DHT22;1796;52.388;13.096;2023-08-31T13:18:01;17.80;99.90
3564;DHT22;1796;52.388;13.096;2023-08-31T13:20:27;17.80;99.90
3564;DHT22;1796;52.388;13.096;2023-08-31T13:22:54;17.80;99.90
3564;DHT22;1796;52.388;13.096;2023-08-31T13:25:22;17.80;99.90
3564;DHT22;1796;52.388;13.096;2023-08-31T13:27:49;17.60;99.90
3564;DHT22;1796;52.388;13.096;2023-08-31T13:30:16;17.50;99.90
3564;DHT22;1796;52.388;13.096;2023-08-31T13:32:43;17.20;99.90
3564;DHT22;1796;52.388;13.096;2023-08-31T13:35:10;16.50;99.90
3564;DHT22;1796;52.388;13.096;2023-08-31T13:37:38;16.10;99.90
3564;DHT22;1796;52.388;13.096;2023-08-31T13:40:06;15.20;99.90
3564;DHT22;1796;52.388;13.096;2023-08-31T13:42:36;14.60;99.90
3564;DHT22;1796;52.388;13.096;2023-08-31T13:45:05;14.30;99.90
3564;DHT22;1796;52.388;13.096;2023-08-31T13:47:32;14.40;99.90
3564;DHT22;1796;52.388;13.096;2023-08-31T13:49:59;14.40;99.90
3564;DHT22;1796;52.388;13.096;2023-08-31T13:52:26;14.60;99.90
3564;DHT22;1796;52.388;13.096;2023-08-31T13:54:53;14.50;99.90
3564;DHT22;1796;52.388;13.096;2023-08-31T13:57:20;14.40;99.90
3564;DHT22;1796;52.388;13.096;2023-08-31T13:59:48;14.10;99.90
3564;DHT22;1796;52.388;13.096;2023-08-31T14:02:15;13.90;99.90
3564;DHT22;1796;52.388;13.096;2023-08-31T14:04:42;13.70;99.90
3564;DHT22;1796;52.388;13.096;2023-08-31T14:07:09;13.60;99.90
3564;DHT22;1796;52.388;13.096;2023-08-31T14:09:36;14.00;99.90
3564;DHT22;1796;52.388;13.096;2023-08-31T14:12:03;14.10;99.90
3564;DHT22;1796;52.388;13.096;2023-08-31T14:14:30;14.20;99.90
3564;DHT22;1796;52.388;13.096;2023-08-31T14:16:57;14.20;99.90
3564;DHT22;1796;52.388;13.096;2023-08-31T14:19:24;14.40;99.90
3564;DHT22;1796;52.388;13.096;2023-08-31T14:21:52;14.60;99.90
3564;DHT22;1796;52.388;13.096;2023-08-31T14:24:19;15.00;99.90
3564;DHT22;1796;52.388;13.096;2023-08-31T14:26:46;15.30;99.90
3564;DHT22;1796;52.388;13.096;2023-08-31T14:29:13;15.50;99.90
3564;DHT22;1796;52.388;13.096;2023-08-31T14:31:40;15.50;99.90
3564;DHT22;1796;52.388;13.096;2023-08-31T14:34:08;15.70;99.90
3564;DHT22;1796;52.388;13.096;2023-08-31T14:36:35;16.00;99.90
3564;DHT22;1796;52.388;13.096;2023-08-31T14:39:02;16.40;99.90
3564;DHT22;1796;52.388;13.096;2023-08-31T14:41:30;16.60;99.90
3564;DHT22;1796;52.388;13.096;2023-08-31T14:43:57;16.80;99.90
3564;DHT22;1796;52.388;13.096;2023-08-31T14:46:24;16.80;99.90
3564;DHT22;1796;52.388;13.096;2023-08-31T14:48:51;16.80;99.90
3564;DHT22;1796;52.388;13.096;2023-08-31T14:51:19;16.60;99.90
3564;DHT22;1796;52.388;13.096;2023-08-31T14:53:46;16.60;99.90
3564;DHT22;1796;52.388;13.096;2023-08-31T14:56:13;16.70;99.90
3564;DHT22;1796;52.388;13.096;2023-08-31T14:58:39;16.70;99.90
3564;DHT22;1796;52.388;13.096;2023-08-31T15:01:06;16.80;99.90
3564;DHT22;1796;52.388;13.096;2023-08-31T15:03:33;16.80;99.90
3564;DHT22;1796;52.388;13.096;2023-08-31T15:06:00;17.00;99.90
3564;DHT22;1796;52.388;13.096;2023-08-31T15:08:36;17.10;99.90
3564;DHT22;1796;52.388;13.096;2023-08-31T15:11:03;17.40;99.90
3564;DHT22;1796;52.388;13.096;2023-08-31T15:13:30;17.40;99.90
3564;DHT22;1796;52.388;13.096;2023-08-31T15:15:57;17.50;99.90
3564;DHT22;1796;52.388;13.096;2023-08-31T15:18:25;17.70;99.90
3564;DHT22;1796;52.388;13.096;2023-08-31T15:20:52;17.60;99.90
3564;DHT22;1796;52.388;13.096;2023-08-31T15:23:19;17.60;99.90
3564;DHT22;1796;52.388;13.096;2023-08-31T15:25:48;17.50;99.90
3564;DHT22;1796;52.388;13.096;2023-08-31T15:28:15;17.30;99.90
3564;DHT22;1796;52.388;13.096;2023-08-31T15:30:42;17.50;99.90
3564;DHT22;1796;52.388;13.096;2023-08-31T15:33:11;17.50;99.90
3564;DHT22;1796;52.388;13.096;2023-08-31T15:35:41;17.30;99.90
3564;DHT22;1796;52.388;13.096;2023-08-31T15:38:08;16.90;99.90
3564;DHT22;1796;52.388;13.096;2023-08-31T15:40:35;16.40;99.90
3564;DHT22;1796;52.388;13.096;2023-08-31T15:43:03;16.00;99.90
3564;DHT22;1796;52.388;13.096;2023-08-31T15:45:30;15.60;99.90
3564;DHT22;1796;52.388;13.096;2023-08-31T15:47:58;15.40;99.90
3564;DHT22;1796;52.388;13.096;2023-08-31T15:50:25;15.40;99.90
3564;DHT22;1796;52.388;13.096;2023-08-31T15:52:53;15.20;99.90
3564;DHT22;1796;52.388;13.096;2023-08-31T15:55:22;15.20;99.90